createdAt,value
2023-02-08T00:05:32.567Z,14.02
2023-02-08T00:12:15.125Z,16.02
2023-02-08T00:18:57.442Z,13.68
2023-02-08T00:25:41.297Z,12.48
2023-02-08T00:32:23.702Z,13.18
2023-02-08T00:39:05.972Z,12.90
2023-02-08T00:45:53.000Z,13.93
2023-02-08T00:52:35.392Z,12.82
2023-02-08T00:59:17.672Z,12.57
2023-02-08T01:06:05.993Z,12.30
2023-02-08T01:12:48.601Z,12.15
2023-02-08T01:19:31.388Z,13.00
2023-02-08T01:26:15.881Z,13.05
2023-02-08T01:32:58.212Z,12.70
2023-02-08T01:39:43.660Z,13.20
2023-02-08T01:46:26.212Z,14.13
2023-02-08T01:53:08.801Z,13.15
2023-02-08T02:00:02.213Z,12.52
2023-02-08T02:06:49.236Z,13.63
2023-02-08T02:13:32.202Z,12.05
2023-02-08T02:20:32.641Z,13.30
2023-02-08T02:27:27.381Z,13.52
2023-02-08T02:34:30.095Z,13.70
2023-02-08T02:41:59.193Z,13.45
2023-02-08T02:48:58.843Z,12.85
2023-02-08T02:55:46.804Z,12.52
2023-02-08T03:02:29.573Z,13.05
2023-02-08T03:18:13.974Z,12.65
2023-02-08T03:25:14.706Z,12.93
2023-02-08T03:32:28.845Z,13.55
2023-02-08T03:39:16.779Z,12.40
2023-02-08T03:46:21.054Z,14.15
2023-02-08T03:53:05.111Z,12.23
2023-02-08T03:59:54.179Z,13.10
2023-02-08T04:06:36.513Z,14.20
2023-02-08T04:13:18.819Z,15.68
2023-02-08T04:20:01.239Z,14.80
2023-02-08T04:26:43.553Z,15.25
2023-02-08T04:33:25.875Z,15.35
2023-02-08T04:40:08.728Z,14.07
2023-02-08T04:46:51.229Z,15.25
2023-02-08T04:53:33.580Z,13.23
2023-02-08T05:00:16.467Z,14.07
2023-02-08T05:06:59.130Z,13.70
2023-02-08T05:13:41.420Z,12.77
2023-02-08T05:20:30.628Z,13.25
2023-02-08T05:27:12.970Z,13.70
2023-02-08T05:33:55.276Z,14.45
2023-02-08T05:40:37.577Z,13.75
2023-02-08T05:47:19.996Z,14.05
2023-02-08T05:54:02.461Z,14.32
2023-02-08T06:00:45.331Z,14.77
2023-02-08T06:07:29.664Z,15.32
2023-02-08T06:14:11.975Z,14.15
2023-02-08T06:20:55.317Z,14.55
2023-02-08T06:27:37.626Z,14.10
2023-02-08T06:34:20.019Z,14.00
2023-02-08T06:41:02.314Z,13.38
2023-02-08T06:47:44.667Z,15.35
2023-02-08T06:54:27.019Z,14.13
2023-02-08T07:01:13.507Z,14.48
2023-02-08T07:07:55.952Z,14.68
2023-02-08T07:14:41.418Z,14.95
2023-02-08T07:21:24.225Z,14.48
2023-02-08T07:28:06.604Z,13.85
2023-02-08T07:34:48.896Z,15.77
2023-02-08T07:41:31.233Z,14.25
2023-02-08T07:48:13.671Z,16.02
2023-02-08T07:54:56.208Z,15.50
2023-02-08T08:01:38.631Z,14.82
2023-02-08T08:08:21.008Z,14.45
2023-02-08T08:15:03.609Z,13.13
2023-02-08T08:21:46.042Z,19.13
2023-02-08T08:28:28.603Z,13.52
2023-02-08T08:35:11.384Z,12.68
2023-02-08T08:41:56.973Z,13.57
2023-02-08T08:48:39.613Z,15.88
2023-02-08T08:55:22.093Z,15.27
2023-02-08T09:02:04.608Z,15.98
2023-02-08T09:08:47.093Z,16.63
2023-02-08T09:15:29.400Z,65.30
2023-02-08T09:22:11.737Z,29.45
2023-02-08T09:28:54.619Z,29.95
2023-02-08T09:35:38.141Z,13.80
2023-02-08T09:42:47.673Z,15.50
2023-02-08T09:49:58.290Z,14.63
2023-02-08T09:56:43.069Z,12.95
2023-02-08T10:03:38.658Z,13.23
2023-02-08T10:10:37.020Z,12.95
2023-02-08T10:17:41.059Z,12.80
2023-02-08T10:25:14.057Z,12.77
2023-02-08T10:32:20.220Z,11.73
2023-02-08T10:39:09.835Z,13.18
2023-02-08T10:46:03.148Z,16.00
2023-02-08T10:52:45.559Z,12.68
2023-02-08T10:59:36.879Z,11.93
2023-02-08T11:06:27.125Z,11.45
2023-02-08T11:13:18.140Z,10.27
2023-02-08T11:20:00.793Z,10.05
2023-02-08T11:26:43.471Z,10.52
2023-02-08T11:33:27.559Z,9.00
2023-02-08T11:40:22.700Z,9.73
2023-02-08T11:47:07.892Z,8.23
2023-02-08T11:53:50.210Z,9.10
2023-02-08T12:00:36.310Z,7.80
2023-02-08T12:07:46.925Z,6.55
2023-02-08T12:14:37.732Z,6.30
2023-02-08T12:21:25.296Z,6.35
2023-02-08T12:28:19.558Z,5.43
2023-02-08T12:35:24.139Z,5.53
2023-02-08T12:42:24.942Z,7.03
2023-02-08T12:49:41.148Z,4.90
2023-02-08T12:56:40.364Z,5.28
2023-02-08T13:03:30.273Z,5.55
2023-02-08T13:10:27.050Z,5.38
2023-02-08T13:17:21.476Z,5.18
2023-02-08T13:24:12.434Z,5.72
2023-02-08T13:30:57.946Z,4.78
2023-02-08T13:37:42.009Z,5.95
2023-02-08T13:44:31.548Z,4.78
2023-02-08T13:52:02.264Z,5.05
2023-02-08T13:58:47.551Z,5.05
2023-02-08T14:05:57.995Z,5.57
2023-02-08T14:12:52.785Z,5.90
2023-02-08T14:19:41.893Z,5.60
2023-02-08T14:26:25.058Z,6.15
2023-02-08T14:33:07.452Z,6.60
2023-02-08T14:39:52.917Z,6.82
2023-02-08T14:46:41.839Z,5.72
2023-02-08T14:53:39.240Z,5.30
2023-02-08T15:00:34.555Z,6.90
2023-02-08T15:07:26.909Z,7.10
2023-02-08T15:14:19.070Z,6.18
2023-02-08T15:21:05.715Z,6.82
2023-02-08T15:27:50.389Z,7.45
2023-02-08T15:34:33.572Z,7.47
2023-02-08T15:41:28.558Z,7.10
2023-02-08T15:48:12.076Z,6.57
2023-02-08T15:54:54.704Z,6.82
2023-02-08T16:01:37.538Z,6.22
2023-02-08T16:08:28.112Z,7.63
2023-02-08T16:15:55.576Z,7.88
2023-02-08T16:22:40.385Z,8.60
2023-02-08T16:29:34.942Z,8.38
2023-02-08T16:36:26.481Z,7.97
2023-02-08T16:43:21.968Z,8.50
2023-02-08T16:50:11.867Z,8.00
2023-02-08T16:56:59.894Z,8.23
2023-02-08T17:03:42.873Z,8.40
2023-02-08T17:10:27.551Z,8.80
2023-02-08T17:17:11.165Z,8.45
2023-02-08T17:23:53.522Z,8.60
2023-02-08T17:30:39.217Z,10.50
2023-02-08T17:37:21.582Z,9.13
2023-02-08T17:44:04.233Z,9.07
2023-02-08T17:50:50.870Z,10.13
2023-02-08T17:57:35.729Z,11.50
2023-02-08T18:04:18.015Z,10.30
2023-02-08T18:11:09.587Z,10.80
2023-02-08T18:17:52.152Z,11.07
2023-02-08T18:24:34.802Z,10.15
2023-02-08T18:31:20.429Z,10.75
2023-02-08T18:38:03.001Z,10.20
2023-02-08T18:44:45.615Z,9.43
2023-02-08T18:51:28.059Z,10.55
2023-02-08T18:58:10.356Z,11.23
2023-02-08T19:04:52.696Z,11.02
2023-02-08T19:11:40.236Z,12.80
2023-02-08T19:18:23.481Z,11.15
2023-02-08T19:25:06.168Z,12.07
2023-02-08T19:31:50.412Z,11.90
2023-02-08T19:38:32.902Z,10.90
2023-02-08T19:45:15.235Z,10.88
2023-02-08T19:51:57.565Z,11.55
2023-02-08T19:58:40.370Z,11.98
2023-02-08T20:05:22.642Z,12.27
2023-02-08T20:12:05.242Z,11.25
2023-02-08T20:18:48.156Z,12.52
2023-02-08T20:25:31.370Z,11.50
2023-02-08T20:32:13.760Z,12.25
2023-02-08T20:38:57.592Z,11.70
2023-02-08T20:45:42.176Z,13.27
2023-02-08T20:52:24.926Z,11.77
2023-02-08T20:59:10.128Z,13.40
2023-02-08T21:05:52.788Z,11.95
2023-02-08T21:12:35.509Z,12.68
2023-02-08T21:19:20.340Z,12.30
2023-02-08T21:26:05.732Z,14.18
2023-02-08T21:32:48.151Z,17.83
2023-02-08T21:39:31.809Z,17.40
2023-02-08T21:46:20.600Z,16.73
2023-02-08T21:53:26.394Z,15.82
2023-02-08T22:00:10.409Z,15.73
2023-02-08T22:06:55.784Z,15.18
2023-02-08T22:13:38.144Z,13.07
2023-02-08T22:20:20.635Z,14.27
2023-02-08T22:27:03.569Z,15.38
2023-02-08T22:33:45.933Z,16.67
2023-02-08T22:40:28.244Z,15.57
2023-02-08T22:47:12.428Z,15.77
2023-02-08T22:53:55.845Z,16.35
2023-02-08T23:00:38.204Z,15.95
2023-02-08T23:07:20.599Z,15.98
2023-02-08T23:14:03.140Z,15.30
2023-02-08T23:20:46.137Z,15.57
2023-02-08T23:27:28.875Z,15.38
2023-02-08T23:34:12.526Z,15.25
2023-02-08T23:40:54.808Z,16.00
2023-02-08T23:47:39.002Z,15.38
2023-02-08T23:54:21.316Z,14.43
